Time;durP1;ratioP1;P1;durP2;ratioP2;P2;SDS_P1;SDS_P2;PMS_P1;PMS_P2;Temp;Humidity;BMP_temperature;BMP_pressure;BME280_temperature;BME280_humidity;BME280_pressure;Samples;Min_cycle;Max_cycle;Signal;HPM_P1;HPM_P2
2021/04/03 00:04:00;;;;;;;10.02;2.80;;;6.80;99.90;;;;;;6754743;88;20618;-75
2021/04/03 00:14:01;;;;;;;11.23;3.40;;;6.90;99.90;;;;;;6753998;88;20289;-76
2021/04/03 00:24:01;;;;;;;11.93;4.57;;;6.90;99.90;;;;;;6747483;87;20746;-75
2021/04/03 00:34:02;;;;;;;11.18;4.60;;;6.80;99.90;;;;;;6753365;88;20406;-77
2021/04/03 00:44:07;;;;;;;10.83;3.47;;;6.80;99.90;;;;;;6755226;88;20311;-76
2021/04/03 00:54:07;;;;;;;11.15;4.47;;;6.70;99.90;;;;;;6754640;88;20531;-75
2021/04/03 01:04:08;;;;;;;14.10;4.32;;;6.50;99.90;;;;;;6754403;88;20211;-76
2021/04/03 01:14:13;;;;;;;15.02;4.93;;;6.40;99.90;;;;;;6754123;88;20180;-76
2021/04/03 01:24:26;;;;;;;13.05;4.60;;;6.50;99.90;;;;;;6754570;88;20215;-75
2021/04/03 01:34:30;;;;;;;10.48;2.70;;;6.60;99.90;;;;;;6757342;88;20204;-75
2021/04/03 01:44:34;;;;;;;12.37;2.67;;;6.70;99.90;;;;;;6756861;88;20692;-75
2021/04/03 01:54:35;;;;;;;14.90;3.25;;;6.50;99.90;;;;;;6757562;88;20192;-75
2021/04/03 02:04:40;;;;;;;11.15;3.65;;;6.40;99.90;;;;;;6753248;87;20837;-75
2021/04/03 02:14:41;;;;;;;14.63;3.78;;;6.30;99.90;;;;;;6760620;87;20647;-75
2021/04/03 02:24:44;;;;;;;16.40;5.75;;;6.40;99.90;;;;;;6756443;87;20623;-75
2021/04/03 02:34:44;;;;;;;22.80;5.62;;;6.20;99.90;;;;;;6759107;88;20651;-75
2021/04/03 02:44:54;;;;;;;15.20;5.68;;;6.30;99.90;;;;;;6764464;88;20214;-74
2021/04/03 02:54:55;;;;;;;14.85;5.30;;;6.30;99.90;;;;;;6756033;88;20208;-75
2021/04/03 03:04:57;;;;;;;18.95;5.72;;;6.30;99.90;;;;;;6755355;88;20873;-75
2021/04/03 03:15:00;;;;;;;16.27;5.25;;;6.20;99.90;;;;;;6755869;88;20690;-75
2021/04/03 03:25:00;;;;;;;15.85;4.70;;;6.10;99.90;;;;;;6756699;88;20267;-75
2021/04/03 03:35:02;;;;;;;10.57;3.90;;;6.10;99.90;;;;;;6756623;87;20799;-75
2021/04/03 03:45:04;;;;;;;14.57;3.40;;;6.00;99.90;;;;;;6763730;87;20530;-75
2021/04/03 03:55:06;;;;;;;11.88;2.90;;;6.00;99.90;;;;;;6763057;88;20192;-76
2021/04/03 04:05:07;;;;;;;12.68;2.92;;;6.00;99.90;;;;;;6761264;88;20219;-75
2021/04/03 04:15:08;;;;;;;11.88;2.95;;;5.90;99.90;;;;;;6748300;88;20200;-76
2021/04/03 04:25:09;;;;;;;12.57;2.78;;;5.90;99.90;;;;;;6763751;76;20277;-74
2021/04/03 04:35:10;;;;;;;11.82;3.30;;;6.00;99.90;;;;;;6739458;88;20632;-74
2021/04/03 04:45:12;;;;;;;13.15;2.72;;;5.90;99.90;;;;;;6744345;88;20196;-74
2021/04/03 04:55:13;;;;;;;9.75;2.50;;;5.80;99.90;;;;;;6739449;88;20619;-74
2021/04/03 05:05:13;;;;;;;12.65;2.20;;;5.90;99.90;;;;;;6738332;88;20221;-74
2021/04/03 05:15:14;;;;;;;10.98;2.22;;;5.90;99.90;;;;;;6752117;88;20232;-74
2021/04/03 05:25:15;;;;;;;10.65;2.65;;;5.90;99.90;;;;;;6738397;88;20295;-74
2021/04/03 05:35:15;;;;;;;11.05;2.05;;;5.90;99.90;;;;;;6740610;88;20205;-74
2021/04/03 05:45:16;;;;;;;8.60;1.70;;;5.80;99.90;;;;;;6737435;88;20246;-74
2021/04/03 05:55:18;;;;;;;8.57;1.52;;;6.00;99.90;;;;;;6740790;88;20212;-74
2021/04/03 06:05:18;;;;;;;9.23;1.52;;;6.10;99.90;;;;;;6750344;88;20227;-74
2021/04/03 06:15:35;;;;;;;8.45;1.45;;;6.20;99.90;;;;;;6740138;88;20577;-74
2021/04/03 06:25:56;;;;;;;6.62;1.65;;;6.50;99.90;;;;;;6739237;88;20192;-75
2021/04/03 06:36:08;;;;;;;9.20;1.67;;;6.80;99.90;;;;;;6734022;88;20195;-74
2021/04/03 06:46:23;;;;;;;6.87;1.40;;;6.80;99.90;;;;;;6743260;88;20217;-74
2021/04/03 06:56:30;;;;;;;10.80;1.70;;;7.10;99.90;;;;;;6751446;88;20377;-74
2021/04/03 07:06:32;;;;;;;14.85;2.08;;;7.40;99.90;;;;;;6739869;88;20664;-74
2021/04/03 07:16:34;;;;;;;9.75;1.48;;;8.00;99.90;;;;;;6738382;88;20228;-74
2021/04/03 07:26:36;;;;;;;12.05;1.58;;;8.50;99.50;;;;;;6735905;88;20198;-74
2021/04/03 07:36:41;;;;;;;10.05;1.83;;;9.10;98.90;;;;;;6727118;88;20667;-74
2021/04/03 07:46:44;;;;;;;10.10;2.10;;;8.70;99.50;;;;;;6736889;88;20263;-75
2021/04/03 07:56:49;;;;;;;10.45;2.17;;;8.60;99.90;;;;;;6734070;88;20731;-75
2021/04/03 08:06:50;;;;;;;11.93;2.22;;;8.80;99.90;;;;;;6733041;88;20316;-74
2021/04/03 08:16:51;;;;;;;12.43;3.03;;;9.80;98.90;;;;;;6731696;88;20197;-75
2021/04/03 08:26:52;;;;;;;16.60;3.40;;;10.40;98.60;;;;;;6735033;88;20197;-74
2021/04/03 08:36:54;;;;;;;11.65;3.30;;;9.90;99.30;;;;;;6733896;88;20311;-75
2021/04/03 08:46:59;;;;;;;17.40;3.65;;;10.40;98.10;;;;;;6741160;88;20220;-75
2021/04/03 08:56:59;;;;;;;15.23;3.05;;;10.80;98.30;;;;;;6738528;88;20218;-75
2021/04/03 09:07:00;;;;;;;13.07;3.33;;;11.00;98.00;;;;;;6729021;88;20223;-75
2021/04/03 09:17:02;;;;;;;15.07;3.40;;;11.30;97.90;;;;;;6734859;88;20200;-74
2021/04/03 09:27:28;;;;;;;12.73;3.08;;;11.80;95.90;;;;;;6738223;88;20209;-75
2021/04/03 09:37:28;;;;;;;9.57;2.43;;;11.80;96.60;;;;;;6737116;88;20739;-74
2021/04/03 09:47:29;;;;;;;10.60;2.37;;;11.90;93.10;;;;;;6736007;88;20246;-75
2021/04/03 09:57:30;;;;;;;11.23;2.97;;;12.70;92.40;;;;;;6732588;88;20688;-75
2021/04/03 10:07:30;;;;;;;12.32;2.90;;;13.20;90.90;;;;;;6735161;88;20217;-75
2021/04/03 10:17:31;;;;;;;12.63;3.23;;;14.00;89.90;;;;;;6734539;88;20211;-75
2021/04/03 10:27:31;;;;;;;13.07;2.87;;;14.70;84.90;;;;;;6729569;76;20503;-76
2021/04/03 10:37:32;;;;;;;7.85;2.30;;;16.20;81.90;;;;;;6720259;88;20211;-76
2021/04/03 10:47:33;;;;;;;10.93;2.37;;;16.20;76.80;;;;;;6717210;88;20165;-76
2021/04/03 10:57:33;;;;;;;12.63;2.60;;;16.70;76.00;;;;;;6714858;88;20190;-76
2021/04/03 11:07:34;;;;;;;10.45;2.58;;;18.00;72.40;;;;;;6715948;88;20612;-75
2021/04/03 11:17:35;;;;;;;10.18;2.47;;;18.30;68.20;;;;;;6716121;88;20255;-76
2021/04/03 11:27:35;;;;;;;9.13;2.85;;;18.60;67.10;;;;;;6711826;88;20280;-76
2021/04/03 11:37:37;;;;;;;9.75;2.55;;;18.30;67.50;;;;;;6715769;88;20290;-76
2021/04/03 11:47:38;;;;;;;8.20;2.65;;;19.50;64.00;;;;;;6716015;88;20608;-76
2021/04/03 11:57:39;;;;;;;8.48;2.50;;;18.00;65.20;;;;;;6718516;88;20220;-77
2021/04/03 12:07:41;;;;;;;9.20;2.55;;;19.10;63.40;;;;;;6729845;88;20173;-77
2021/04/03 12:17:42;;;;;;;9.68;2.03;;;19.30;58.70;;;;;;6723841;88;20203;-77
2021/04/03 12:27:43;;;;;;;8.95;2.50;;;17.80;61.80;;;;;;6721953;88;20269;-76
2021/04/03 12:37:44;;;;;;;8.20;2.90;;;16.40;64.60;;;;;;6715898;88;20194;-76
2021/04/03 12:47:44;;;;;;;8.90;3.25;;;15.40;67.00;;;;;;6715211;88;20202;-76
2021/04/03 12:57:45;;;;;;;9.30;3.15;;;15.70;67.50;;;;;;6714995;88;20204;-76
2021/04/03 13:07:45;;;;;;;10.43;3.60;;;16.70;65.30;;;;;;6715036;88;20655;-76
2021/04/03 13:17:46;;;;;;;9.98;3.30;;;16.20;66.80;;;;;;6715674;88;20635;-76
2021/04/03 13:27:46;;;;;;;9.50;4.25;;;15.40;66.30;;;;;;6719723;88;20312;-76
2021/04/03 13:37:47;;;;;;;10.75;3.70;;;15.60;68.20;;;;;;6717813;88;20600;-75
2021/04/03 13:47:48;;;;;;;8.75;3.03;;;15.90;67.20;;;;;;6721320;88;20185;-76
2021/04/03 13:57:48;;;;;;;8.13;2.72;;;16.20;65.00;;;;;;6719729;88;20640;-76
2021/04/03 14:07:49;;;;;;;4.80;1.62;;;16.10;64.20;;;;;;6719365;88;20260;-76
2021/04/03 14:17:49;;;;;;;5.87;1.77;;;17.10;61.00;;;;;;6718881;88;20213;-76
2021/04/03 14:27:50;;;;;;;4.45;1.70;;;16.80;62.40;;;;;;6719129;88;20252;-77
2021/04/03 14:37:50;;;;;;;4.30;1.50;;;17.50;57.40;;;;;;6718482;88;20261;-76
2021/04/03 14:47:51;;;;;;;2.78;1.17;;;17.30;58.20;;;;;;6718121;88;20204;-77
2021/04/03 14:57:51;;;;;;;5.00;1.85;;;15.80;59.60;;;;;;6715130;88;20696;-78
2021/04/03 15:07:52;;;;;;;4.07;1.48;;;15.90;59.60;;;;;;6715112;88;20223;-76
2021/04/03 15:17:52;;;;;;;6.25;2.03;;;15.70;59.30;;;;;;6719057;88;20270;-77
2021/04/03 15:27:53;;;;;;;5.60;1.60;;;15.80;60.70;;;;;;6719087;88;20209;-77
2021/04/03 15:37:54;;;;;;;5.40;1.70;;;14.80;60.90;;;;;;6718468;88;20746;-77
2021/04/03 15:47:54;;;;;;;6.28;2.12;;;15.10;60.50;;;;;;6717967;88;20185;-77
2021/04/03 15:57:55;;;;;;;5.75;2.12;;;15.70;60.70;;;;;;6718049;88;20192;-76
2021/04/03 16:07:55;;;;;;;6.20;1.87;;;15.90;60.60;;;;;;6718516;88;20741;-76
2021/04/03 16:17:56;;;;;;;6.37;1.67;;;15.10;60.20;;;;;;6718167;88;20247;-77
2021/04/03 16:27:58;;;;;;;5.95;1.80;;;15.40;59.60;;;;;;6719960;77;20611;-77
2021/04/03 16:37:58;;;;;;;6.72;2.20;;;15.40;59.70;;;;;;6710336;88;20167;-76
2021/04/03 16:47:59;;;;;;;7.30;1.90;;;14.60;59.20;;;;;;6711380;88;20221;-77
2021/04/03 16:57:59;;;;;;;8.55;2.12;;;13.60;61.20;;;;;;6708089;88;20198;-77
2021/04/03 17:08:02;;;;;;;9.00;2.85;;;13.30;62.50;;;;;;6715409;88;20203;-77
2021/04/03 17:18:03;;;;;;;8.88;2.50;;;13.40;65.30;;;;;;6710719;88;20189;-77
2021/04/03 17:28:04;;;;;;;8.48;3.30;;;13.10;65.40;;;;;;6709406;88;20205;-77
2021/04/03 17:38:04;;;;;;;7.85;3.05;;;12.80;65.30;;;;;;6710782;88;20697;-77
2021/04/03 17:48:05;;;;;;;6.68;2.72;;;12.50;63.70;;;;;;6712437;88;20201;-77
2021/04/03 17:58:06;;;;;;;6.80;2.87;;;12.20;65.60;;;;;;6711123;88;20190;-75
2021/04/03 18:08:07;;;;;;;7.63;3.10;;;11.80;65.00;;;;;;6711744;88;20327;-77
2021/04/03 18:18:07;;;;;;;5.83;2.40;;;11.70;65.60;;;;;;6714370;88;20558;-78
2021/04/03 18:28:08;;;;;;;8.90;4.10;;;11.50;67.30;;;;;;6716587;88;21035;-75
2021/04/03 18:38:09;;;;;;;6.85;2.83;;;11.30;68.40;;;;;;6712747;88;20202;-76
2021/04/03 18:48:10;;;;;;;8.98;4.05;;;11.00;67.60;;;;;;6720427;88;20208;-76
2021/04/03 18:58:11;;;;;;;12.45;4.15;;;10.60;74.10;;;;;;6709714;88;20275;-76
2021/04/03 19:08:11;;;;;;;19.10;5.40;;;10.40;77.60;;;;;;6707893;88;20426;-75
2021/04/03 19:18:12;;;;;;;13.50;5.30;;;10.10;80.30;;;;;;6712920;88;20255;-76
2021/04/03 19:28:12;;;;;;;10.93;5.57;;;10.00;85.00;;;;;;6717282;88;20644;-76
2021/04/03 19:38:13;;;;;;;12.25;5.18;;;9.90;89.60;;;;;;6734397;88;20228;-76
2021/04/03 19:48:13;;;;;;;13.10;4.97;;;9.80;90.40;;;;;;6725490;88;20257;-76
2021/04/03 19:58:14;;;;;;;14.37;4.87;;;9.60;91.50;;;;;;6731597;88;20867;-77
2021/04/03 20:08:15;;;;;;;14.05;6.22;;;9.40;92.30;;;;;;6726343;88;20535;-77
2021/04/03 20:18:15;;;;;;;20.60;7.80;;;9.20;94.00;;;;;;6736064;88;20214;-77
2021/04/03 20:28:16;;;;;;;16.33;7.35;;;8.80;95.20;;;;;;6727703;88;20226;-76
2021/04/03 20:38:16;;;;;;;15.38;6.10;;;8.70;96.80;;;;;;6708242;88;20660;-76
2021/04/03 20:48:17;;;;;;;16.23;5.87;;;8.50;96.40;;;;;;6715668;88;20714;-76
2021/04/03 20:58:17;;;;;;;19.00;5.55;;;8.30;97.00;;;;;;6716452;88;20736;-75
2021/04/03 21:08:18;;;;;;;18.67;5.18;;;8.30;96.90;;;;;;6719735;88;20201;-75
2021/04/03 21:18:19;;;;;;;12.45;5.05;;;8.20;97.60;;;;;;6720189;88;20237;-76
2021/04/03 21:28:20;;;;;;;15.30;4.62;;;8.00;98.40;;;;;;6723081;88;20207;-76
2021/04/03 21:38:20;;;;;;;12.52;3.62;;;7.80;99.90;;;;;;6736243;88;20693;-76
2021/04/03 21:48:21;;;;;;;22.27;4.25;;;7.70;99.90;;;;;;6735895;88;20280;-75
2021/04/03 21:58:22;;;;;;;12.20;3.75;;;7.60;99.90;;;;;;6733969;88;20189;-76
2021/04/03 22:08:22;;;;;;;13.73;4.30;;;7.40;99.90;;;;;;6731101;88;20190;-76
2021/04/03 22:18:23;;;;;;;19.17;3.85;;;7.50;99.90;;;;;;6735484;88;20563;-75
2021/04/03 22:28:24;;;;;;;24.85;4.03;;;7.60;99.90;;;;;;6728315;77;20192;-77
2021/04/03 22:38:24;;;;;;;14.77;3.80;;;7.50;99.90;;;;;;6712160;88;20236;-77
2021/04/03 22:48:25;;;;;;;14.98;3.80;;;7.40;99.90;;;;;;6741714;87;20322;-77
2021/04/03 22:58:25;;;;;;;17.40;3.80;;;7.10;99.90;;;;;;6742684;87;20514;-77
2021/04/03 23:08:26;;;;;;;16.02;3.78;;;7.00;99.90;;;;;;6747525;88;20224;-78
2021/04/03 23:18:27;;;;;;;14.55;3.92;;;7.00;99.90;;;;;;6721665;87;20677;-77
2021/04/03 23:28:27;;;;;;;20.62;4.22;;;6.80;99.90;;;;;;6747360;88;20226;-77
2021/04/03 23:38:28;;;;;;;19.08;3.90;;;6.60;99.90;;;;;;6743085;88;20185;-77
2021/04/03 23:48:29;;;;;;;16.02;4.10;;;6.30;99.90;;;;;;6743485;87;20201;-77
2021/04/03 23:58:30;;;;;;;17.80;4.15;;;6.30;99.90;;;;;;6744698;87;20215;-77
